createdAt,value
2019-04-20T00:00:01.716Z,1024.47
2019-04-20T00:00:58.521Z,1024.48
2019-04-20T00:02:04.370Z,1024.44
2019-04-20T00:02:59.772Z,1024.45
2019-04-20T00:03:56.176Z,1024.42
2019-04-20T00:04:57.050Z,1024.41
2019-04-20T00:05:57.334Z,1024.45
2019-04-20T00:06:57.566Z,1024.43
2019-04-20T00:07:57.115Z,1024.40
2019-04-20T00:08:59.828Z,1024.42
2019-04-20T00:10:06.281Z,1024.39
2019-04-20T00:11:07.333Z,1024.37
2019-04-20T00:12:07.066Z,1024.37
2019-04-20T00:13:09.218Z,1024.38
2019-04-20T00:14:04.114Z,1024.39
2019-04-20T00:14:57.022Z,1024.34
2019-04-20T00:15:56.011Z,1024.42
2019-04-20T00:16:56.831Z,1024.36
2019-04-20T00:17:59.551Z,1024.35
2019-04-20T00:19:00.290Z,1024.35
2019-04-20T00:19:58.951Z,1024.35
2019-04-20T00:21:00.290Z,1024.36
2019-04-20T00:22:02.943Z,1024.31
2019-04-20T00:22:58.150Z,1024.27
2019-04-20T00:23:56.596Z,1024.35
2019-04-20T00:25:03.709Z,1024.30
2019-04-20T00:26:06.781Z,1024.30
2019-04-20T00:27:15.870Z,1024.27
2019-04-20T00:28:16.074Z,1024.30
2019-04-20T00:29:19.818Z,1024.32
2019-04-20T00:30:20.482Z,1024.26
2019-04-20T00:31:17.457Z,1024.28
2019-04-20T00:32:09.860Z,1024.31
2019-04-20T00:33:07.299Z,1024.39
2019-04-20T00:34:08.003Z,1024.34
2019-04-20T00:34:57.885Z,1024.26
2019-04-20T00:35:57.020Z,1024.29
2019-04-20T00:36:56.162Z,1024.28
2019-04-20T00:37:56.978Z,1024.29
2019-04-20T00:38:59.499Z,1024.31
2019-04-20T00:39:57.762Z,1024.27
2019-04-20T00:41:01.999Z,1024.35
2019-04-20T00:42:03.429Z,1024.34
2019-04-20T00:42:59.552Z,1024.31
2019-04-20T00:43:57.827Z,1024.28
2019-04-20T00:45:05.685Z,1024.32
2019-04-20T00:46:04.906Z,1024.29
2019-04-20T00:47:08.568Z,1024.34
2019-04-20T00:48:03.279Z,1024.28
2019-04-20T00:49:07.081Z,1024.29
2019-04-20T00:50:08.092Z,1024.34
2019-04-20T00:51:16.548Z,1024.32
2019-04-20T00:52:24.148Z,1024.28
2019-04-20T00:53:07.333Z,1024.31
2019-04-20T00:53:58.738Z,1024.29
2019-04-20T00:54:55.957Z,1024.29
2019-04-20T00:55:55.568Z,1024.31
2019-04-20T00:57:07.820Z,1024.41
2019-04-20T00:58:08.839Z,1024.39
2019-04-20T00:59:09.270Z,1024.44
2019-04-20T01:00:19.211Z,1024.42
2019-04-20T01:01:17.133Z,1024.40
2019-04-20T01:02:13.123Z,1024.49
2019-04-20T01:03:14.415Z,1024.42
2019-04-20T01:04:16.361Z,1024.48
2019-04-20T01:05:16.423Z,1024.43
2019-04-20T01:06:19.265Z,1024.47
2019-04-20T01:07:11.324Z,1024.42
2019-04-20T01:08:00.542Z,1024.42
2019-04-20T01:08:57.085Z,1024.42
2019-04-20T01:09:56.258Z,1024.43
2019-04-20T01:10:57.653Z,1024.40
2019-04-20T01:11:56.601Z,1024.42
2019-04-20T01:13:02.472Z,1024.42
2019-04-20T01:14:03.875Z,1024.38
2019-04-20T01:15:01.255Z,1024.42
2019-04-20T01:16:04.701Z,1024.38
2019-04-20T01:17:02.176Z,1024.43
2019-04-20T01:17:56.311Z,1024.42
2019-04-20T01:18:56.187Z,1024.41
2019-04-20T01:19:55.318Z,1024.42
2019-04-20T01:20:59.118Z,1024.35
2019-04-20T01:22:02.340Z,1024.43
2019-04-20T01:23:02.185Z,1024.43
2019-04-20T01:24:01.510Z,1024.41
2019-04-20T01:25:00.146Z,1024.40
2019-04-20T01:26:03.182Z,1024.44
2019-04-20T01:27:00.838Z,1024.45
2019-04-20T01:28:18.352Z,1024.45
2019-04-20T01:29:09.128Z,1024.49
2019-04-20T01:30:06.727Z,1024.44
2019-04-20T01:31:06.469Z,1024.47
2019-04-20T01:32:10.449Z,1024.48
2019-04-20T01:33:13.726Z,1024.47
2019-04-20T01:34:03.135Z,1024.48
2019-04-20T01:35:12.117Z,1024.47
2019-04-20T01:36:16.408Z,1024.51
2019-04-20T01:37:13.126Z,1024.58
2019-04-20T01:38:11.838Z,1024.44
2019-04-20T01:39:07.791Z,1024.47
2019-04-20T01:39:59.256Z,1024.47
2019-04-20T01:40:57.138Z,1024.49
2019-04-20T01:41:56.127Z,1024.46
2019-04-20T01:42:55.372Z,1024.47
2019-04-20T01:43:56.123Z,1024.50
2019-04-20T01:44:57.001Z,1024.52
2019-04-20T01:46:01.300Z,1024.52
2019-04-20T01:46:58.697Z,1024.54
2019-04-20T01:47:58.377Z,1024.55
2019-04-20T01:48:58.258Z,1024.55
2019-04-20T01:50:05.407Z,1024.56
2019-04-20T01:51:04.759Z,1024.60
2019-04-20T01:52:04.831Z,1024.61
2019-04-20T01:53:08.287Z,1024.58
2019-04-20T01:54:14.837Z,1024.60
2019-04-20T01:55:17.365Z,1024.58
2019-04-20T01:56:14.319Z,1024.59
2019-04-20T01:57:06.266Z,1024.59
2019-04-20T01:58:11.619Z,1024.59
2019-04-20T01:59:10.598Z,1024.61
2019-04-20T02:00:05.340Z,1024.63
2019-04-20T02:00:57.602Z,1024.65
2019-04-20T02:01:59.436Z,1024.61
2019-04-20T02:02:59.291Z,1024.60
2019-04-20T02:03:58.719Z,1024.61
2019-04-20T02:05:00.590Z,1024.66
2019-04-20T02:06:05.565Z,1024.61
2019-04-20T02:06:59.979Z,1024.66
2019-04-20T02:07:57.091Z,1024.57
2019-04-20T02:09:01.792Z,1024.67
2019-04-20T02:10:00.817Z,1024.65
2019-04-20T02:10:59.189Z,1024.66
2019-04-20T02:12:03.892Z,1024.66
2019-04-20T02:12:59.611Z,1024.68
2019-04-20T02:14:01.439Z,1024.66
2019-04-20T02:15:00.480Z,1024.64
2019-04-20T02:15:59.280Z,1024.69
2019-04-20T02:17:04.510Z,1024.64
2019-04-20T02:18:08.887Z,1024.69
2019-04-20T02:19:09.108Z,1024.61
2019-04-20T02:20:17.987Z,1024.68
2019-04-20T02:21:17.840Z,1024.70
2019-04-20T02:22:09.864Z,1024.72
2019-04-20T02:23:10.558Z,1024.71
2019-04-20T02:24:00.615Z,1024.69
2019-04-20T02:24:55.623Z,1024.71
2019-04-20T02:25:54.628Z,1024.70
2019-04-20T02:26:55.629Z,1024.72
2019-04-20T02:28:13.513Z,1024.68
2019-04-20T02:29:20.708Z,1024.70
2019-04-20T02:30:23.889Z,1024.68
2019-04-20T02:31:34.317Z,1024.71
2019-04-20T02:32:23.234Z,1024.72
2019-04-20T02:33:34.851Z,1024.73
2019-04-20T02:34:31.640Z,1024.81
2019-04-20T02:35:30.236Z,1024.75
2019-04-20T02:37:36.211Z,1024.71
2019-04-20T02:38:42.201Z,1024.78
2019-04-20T02:40:47.204Z,1024.75
2019-04-20T02:41:27.864Z,1024.76
2019-04-20T02:42:34.232Z,1024.71
2019-04-20T02:43:44.292Z,1024.75
2019-04-20T02:44:34.004Z,1024.76
2019-04-20T02:46:24.491Z,1024.78
2019-04-20T02:47:32.099Z,1024.79
2019-04-20T02:48:23.479Z,1024.74
2019-04-20T02:49:42.038Z,1024.72
2019-04-20T02:50:30.856Z,1024.81
2019-04-20T02:53:32.474Z,1024.78
2019-04-20T02:55:31.384Z,1024.80
2019-04-20T02:56:32.738Z,1024.78
2019-04-20T02:57:34.283Z,1024.81
2019-04-20T02:58:23.966Z,1024.77
2019-04-20T02:59:56.311Z,1024.76
2019-04-20T03:01:15.947Z,1024.77
2019-04-20T03:02:17.306Z,1024.79
2019-04-20T03:03:07.915Z,1024.75
2019-04-20T03:03:59.772Z,1024.76
2019-04-20T03:05:08.115Z,1024.75
2019-04-20T03:06:10.681Z,1024.72
2019-04-20T03:07:11.842Z,1024.73
2019-04-20T03:08:13.695Z,1024.77
2019-04-20T03:09:20.115Z,1024.78
2019-04-20T03:10:12.434Z,1024.74
2019-04-20T03:11:22.491Z,1024.76
2019-04-20T03:12:18.621Z,1024.76
2019-04-20T03:13:18.810Z,1024.79
2019-04-20T03:14:13.885Z,1024.81
2019-04-20T03:15:12.913Z,1024.76
2019-04-20T03:16:16.521Z,1024.76
2019-04-20T03:18:14.586Z,1024.78
2019-04-20T03:19:12.960Z,1024.74
2019-04-20T03:20:10.651Z,1024.77
2019-04-20T03:21:17.734Z,1024.82
2019-04-20T03:22:21.377Z,1024.75
2019-04-20T03:23:35.716Z,1024.76
2019-04-20T03:24:20.395Z,1024.77
2019-04-20T03:25:18.142Z,1024.79
2019-04-20T03:26:16.138Z,1024.80
2019-04-20T03:27:14.837Z,1024.81
2019-04-20T03:28:15.442Z,1024.78
2019-04-20T03:29:11.666Z,1024.78
2019-04-20T03:30:42.397Z,1024.75
2019-04-20T03:32:40.298Z,1024.81
2019-04-20T03:33:30.923Z,1024.78
2019-04-20T03:34:47.457Z,1024.84
2019-04-20T03:35:20.846Z,1024.83
2019-04-20T03:36:29.781Z,1024.87
2019-04-20T03:37:19.373Z,1024.80
2019-04-20T03:38:14.237Z,1024.83
2019-04-20T03:39:12.689Z,1024.81
2019-04-20T03:40:10.400Z,1024.81
2019-04-20T03:41:11.113Z,1024.82
2019-04-20T03:41:56.746Z,1024.81
2019-04-20T03:42:54.906Z,1024.83
2019-04-20T03:44:01.017Z,1024.88
2019-04-20T03:45:01.783Z,1024.90
2019-04-20T03:46:01.421Z,1024.87
2019-04-20T03:46:59.771Z,1024.83
2019-04-20T03:48:06.150Z,1024.87
2019-04-20T03:49:10.655Z,1024.88
2019-04-20T03:50:18.580Z,1024.85
2019-04-20T03:51:17.717Z,1024.87
2019-04-20T03:52:16.382Z,1024.88
2019-04-20T03:53:19.242Z,1024.85
2019-04-20T03:54:12.203Z,1024.85
2019-04-20T03:55:16.484Z,1024.85
2019-04-20T03:56:19.482Z,1024.88
2019-04-20T03:57:22.516Z,1024.83
2019-04-20T03:58:15.325Z,1024.84
2019-04-20T03:59:08.700Z,1024.81
2019-04-20T04:00:10.152Z,1024.81
2019-04-20T04:01:22.762Z,1024.86
2019-04-20T04:03:21.377Z,1024.81
2019-04-20T04:04:19.393Z,1024.84
2019-04-20T04:05:12.554Z,1024.84
2019-04-20T04:06:08.639Z,1024.80
2019-04-20T04:06:58.085Z,1024.85
2019-04-20T04:08:06.209Z,1024.85
2019-04-20T04:09:07.591Z,1024.88
2019-04-20T04:10:09.768Z,1024.81
2019-04-20T04:11:12.311Z,1024.79
2019-04-20T04:12:07.707Z,1024.80
2019-04-20T04:12:54.708Z,1024.83
2019-04-20T04:13:54.620Z,1024.79
2019-04-20T04:14:53.700Z,1024.85
2019-04-20T04:15:59.327Z,1024.80
2019-04-20T04:16:57.929Z,1024.81
2019-04-20T04:17:59.886Z,1024.80
2019-04-20T04:19:07.391Z,1024.81
2019-04-20T04:20:01.440Z,1024.84
2019-04-20T04:21:03.041Z,1024.79
2019-04-20T04:22:11.122Z,1024.86
2019-04-20T04:23:10.327Z,1024.83
2019-04-20T04:24:02.501Z,1024.81
2019-04-20T04:25:07.961Z,1024.89
2019-04-20T04:26:08.715Z,1024.81
2019-04-20T04:27:05.636Z,1024.86
2019-04-20T04:28:10.784Z,1024.84
2019-04-20T04:29:19.199Z,1024.85
2019-04-20T04:30:10.404Z,1024.87
2019-04-20T04:31:13.399Z,1024.87
2019-04-20T04:32:23.540Z,1024.84
2019-04-20T04:33:33.985Z,1024.88
2019-04-20T04:34:16.522Z,1024.90
2019-04-20T04:35:09.235Z,1024.91
2019-04-20T04:36:10.047Z,1024.91
2019-04-20T04:37:17.932Z,1024.98
2019-04-20T04:38:15.230Z,1024.98
2019-04-20T04:39:14.988Z,1025.02
2019-04-20T04:40:27.819Z,1025.01
2019-04-20T04:41:19.588Z,1024.97
2019-04-20T04:42:19.192Z,1025.01
2019-04-20T04:43:17.019Z,1025.02
2019-04-20T04:44:10.961Z,1025.06
2019-04-20T04:45:00.552Z,1025.03
2019-04-20T04:45:55.397Z,1025.01
2019-04-20T04:46:59.390Z,1025.03
2019-04-20T04:47:53.959Z,1025.00
2019-04-20T04:48:58.337Z,1025.01
2019-04-20T04:49:59.985Z,1025.09
2019-04-20T04:51:00.783Z,1025.08
2019-04-20T04:52:01.094Z,1025.05
2019-04-20T04:53:02.768Z,1025.03
2019-04-20T04:54:02.879Z,1025.03
2019-04-20T04:55:06.659Z,1025.05
2019-04-20T04:56:00.447Z,1025.08
2019-04-20T04:56:54.592Z,1025.07
2019-04-20T04:57:53.771Z,1025.05
2019-04-20T04:58:53.820Z,1025.06
2019-04-20T04:59:55.196Z,1025.10
2019-04-20T05:00:56.951Z,1025.18
2019-04-20T05:01:56.806Z,1025.12
2019-04-20T05:02:58.296Z,1025.13
2019-04-20T05:04:28.934Z,1025.11
2019-04-20T05:05:10.306Z,1025.16
2019-04-20T05:06:15.108Z,1025.15
2019-04-20T05:07:07.285Z,1025.16
2019-04-20T05:08:02.827Z,1025.14
2019-04-20T05:08:58.430Z,1025.17
2019-04-20T05:09:54.824Z,1025.24
2019-04-20T05:10:54.050Z,1025.15
2019-04-20T05:11:59.714Z,1025.16
2019-04-20T05:12:54.770Z,1025.16
2019-04-20T05:13:58.304Z,1025.17
2019-04-20T05:15:04.321Z,1025.18
2019-04-20T05:16:07.873Z,1025.16
2019-04-20T05:17:08.775Z,1025.16
2019-04-20T05:18:11.932Z,1025.23
2019-04-20T05:20:13.184Z,1025.23
2019-04-20T05:21:25.380Z,1025.21
2019-04-20T05:22:15.959Z,1025.19
2019-04-20T05:23:08.809Z,1025.19
2019-04-20T05:24:13.194Z,1025.21
2019-04-20T05:25:12.957Z,1025.22
2019-04-20T05:26:16.898Z,1025.28
2019-04-20T05:27:15.986Z,1025.25
2019-04-20T05:28:11.957Z,1025.24
2019-04-20T05:29:03.441Z,1025.25
2019-04-20T05:29:54.932Z,1025.25
2019-04-20T05:30:57.789Z,1025.24
2019-04-20T05:31:58.666Z,1025.27
2019-04-20T05:33:01.661Z,1025.26
2019-04-20T05:35:17.768Z,1025.28
2019-04-20T05:36:14.813Z,1025.28
2019-04-20T05:37:23.635Z,1025.27
2019-04-20T05:38:28.339Z,1025.26
2019-04-20T05:39:22.486Z,1025.22
2019-04-20T05:40:16.189Z,1025.23
2019-04-20T05:41:11.508Z,1025.22
2019-04-20T05:42:20.290Z,1025.28
2019-04-20T05:43:12.919Z,1025.22
2019-04-20T05:44:11.260Z,1025.20
2019-04-20T05:45:15.455Z,1025.17
2019-04-20T05:46:16.932Z,1025.16
2019-04-20T05:47:11.050Z,1025.17
2019-04-20T05:48:08.981Z,1025.20
2019-04-20T05:49:17.662Z,1025.25
2019-04-20T05:50:05.949Z,1025.16
2019-04-20T05:51:20.731Z,1025.14
2019-04-20T05:52:24.075Z,1025.22
2019-04-20T05:53:14.460Z,1025.16
2019-04-20T05:54:17.818Z,1025.16
2019-04-20T05:55:19.386Z,1025.16
2019-04-20T05:56:08.861Z,1025.18
2019-04-20T05:57:21.301Z,1025.16
2019-04-20T05:58:17.914Z,1025.11
2019-04-20T05:59:11.565Z,1025.13
2019-04-20T06:00:14.622Z,1025.17
2019-04-20T06:01:12.251Z,1025.12
2019-04-20T06:02:20.622Z,1025.18
2019-04-20T06:03:12.995Z,1025.13
2019-04-20T06:04:10.204Z,1025.12
2019-04-20T06:05:17.784Z,1025.15
2019-04-20T06:06:14.096Z,1025.12
2019-04-20T06:07:18.337Z,1025.18
2019-04-20T06:08:25.023Z,1025.24
2019-04-20T06:09:18.261Z,1025.17
2019-04-20T06:10:11.470Z,1025.18
2019-04-20T06:11:15.390Z,1025.14
2019-04-20T06:12:33.055Z,1025.14
2019-04-20T06:13:12.707Z,1025.17
2019-04-20T06:14:04.531Z,1025.15
2019-04-20T06:15:09.228Z,1025.13
2019-04-20T06:16:07.627Z,1025.14
2019-04-20T06:17:19.559Z,1025.09
2019-04-20T06:18:06.611Z,1025.15
2019-04-20T06:19:24.377Z,1025.13
2019-04-20T06:20:16.902Z,1025.18
2019-04-20T06:21:19.966Z,1025.21
2019-04-20T06:22:18.771Z,1025.22
2019-04-20T06:23:19.057Z,1025.23
2019-04-20T06:24:22.390Z,1025.26
2019-04-20T06:25:38.878Z,1025.25
2019-04-20T06:26:33.605Z,1025.20
2019-04-20T06:27:14.869Z,1025.25
2019-04-20T06:28:12.764Z,1025.24
2019-04-20T06:29:09.668Z,1025.28
2019-04-20T06:30:10.964Z,1025.28
2019-04-20T06:31:17.981Z,1025.26
2019-04-20T06:32:23.463Z,1025.29
2019-04-20T06:33:21.930Z,1025.32
2019-04-20T06:34:27.732Z,1025.27
2019-04-20T06:35:19.528Z,1025.33
2019-04-20T06:36:26.174Z,1025.32
2019-04-20T06:37:10.178Z,1025.31
2019-04-20T06:38:26.571Z,1025.31
2019-04-20T06:39:16.303Z,1025.31
2019-04-20T06:40:29.311Z,1025.28
2019-04-20T06:41:21.529Z,1025.29
2019-04-20T06:42:23.159Z,1025.19
2019-04-20T06:43:12.488Z,1025.22
2019-04-20T06:44:15.031Z,1025.21
2019-04-20T06:45:20.201Z,1025.21
2019-04-20T06:46:15.031Z,1025.24
2019-04-20T06:47:18.816Z,1025.19
2019-04-20T06:48:27.414Z,1025.24
2019-04-20T06:49:27.445Z,1025.27
2019-04-20T06:50:15.015Z,1025.27
2019-04-20T06:51:09.314Z,1025.31
2019-04-20T06:52:23.412Z,1025.28
2019-04-20T06:53:16.323Z,1025.26
2019-04-20T06:54:03.162Z,1025.30
2019-04-20T06:55:13.899Z,1025.32
2019-04-20T06:56:15.953Z,1025.33
2019-04-20T06:57:07.124Z,1025.32
2019-04-20T06:58:31.909Z,1025.33
2019-04-20T06:59:20.021Z,1025.27
2019-04-20T07:00:15.392Z,1025.31
2019-04-20T07:01:10.943Z,1025.24
2019-04-20T07:02:38.634Z,1025.35
2019-04-20T07:03:17.504Z,1025.30
2019-04-20T07:04:33.319Z,1025.32
2019-04-20T07:05:28.553Z,1025.25
2019-04-20T07:06:31.057Z,1025.26
2019-04-20T07:07:14.468Z,1025.24
2019-04-20T07:08:28.895Z,1025.27
2019-04-20T07:09:26.275Z,1025.27
2019-04-20T07:11:18.877Z,1025.30
2019-04-20T07:12:13.104Z,1025.31
2019-04-20T07:13:07.487Z,1025.35
2019-04-20T07:14:00.998Z,1025.27
2019-04-20T07:15:08.475Z,1025.27
2019-04-20T07:16:16.259Z,1025.29
2019-04-20T07:17:20.442Z,1025.27
2019-04-20T07:18:16.955Z,1025.31
2019-04-20T07:19:15.283Z,1025.27
2019-04-20T07:20:12.942Z,1025.30
2019-04-20T07:21:12.697Z,1025.28
2019-04-20T07:22:25.416Z,1025.29
2019-04-20T07:23:24.254Z,1025.27
2019-04-20T07:24:19.151Z,1025.26
2019-04-20T07:25:19.101Z,1025.28
2019-04-20T07:26:17.056Z,1025.29
2019-04-20T07:27:14.914Z,1025.28
2019-04-20T07:28:19.647Z,1025.27
2019-04-20T07:29:15.763Z,1025.28
2019-04-20T07:30:12.082Z,1025.27
2019-04-20T07:31:17.202Z,1025.29
2019-04-20T07:32:06.390Z,1025.32
2019-04-20T07:33:16.044Z,1025.33
2019-04-20T07:34:10.445Z,1025.33
2019-04-20T07:35:14.053Z,1025.35
2019-04-20T07:36:22.562Z,1025.35
2019-04-20T07:37:37.126Z,1025.29
2019-04-20T07:38:25.664Z,1025.31
2019-04-20T07:39:19.402Z,1025.32
2019-04-20T07:40:16.387Z,1025.25
2019-04-20T07:41:21.618Z,1025.37
2019-04-20T07:42:16.559Z,1025.34
2019-04-20T07:43:07.982Z,1025.34
2019-04-20T07:44:18.698Z,1025.33
2019-04-20T07:45:19.906Z,1025.36
2019-04-20T07:46:23.859Z,1025.32
2019-04-20T07:47:31.012Z,1025.36
2019-04-20T07:49:15.976Z,1025.40
2019-04-20T07:50:09.043Z,1025.38
2019-04-20T07:51:01.166Z,1025.35
2019-04-20T07:51:52.611Z,1025.36
2019-04-20T07:53:04.437Z,1025.41
2019-04-20T07:55:32.752Z,1025.35
2019-04-20T07:56:11.483Z,1025.37
2019-04-20T07:57:10.013Z,1025.33
2019-04-20T07:58:05.258Z,1025.28
2019-04-20T07:58:57.090Z,1025.28
2019-04-20T08:00:16.311Z,1025.28
2019-04-20T08:01:14.928Z,1025.33
2019-04-20T08:02:16.243Z,1025.31
2019-04-20T08:03:18.456Z,1025.25
2019-04-20T08:04:13.023Z,1025.30
2019-04-20T08:05:08.504Z,1025.31
2019-04-20T08:06:02.333Z,1025.39
2019-04-20T08:06:55.700Z,1025.31
2019-04-20T08:08:12.705Z,1025.31
2019-04-20T08:09:08.353Z,1025.30
2019-04-20T08:09:58.642Z,1025.36
2019-04-20T08:11:10.278Z,1025.31
2019-04-20T08:12:14.117Z,1025.32
2019-04-20T08:13:18.073Z,1025.30
2019-04-20T08:14:19.306Z,1025.32
2019-04-20T08:15:24.012Z,1025.29
2019-04-20T08:16:15.021Z,1025.31
2019-04-20T08:17:20.359Z,1025.28
2019-04-20T08:18:16.424Z,1025.20
2019-04-20T08:19:12.025Z,1025.22
2019-04-20T08:20:09.411Z,1025.25
2019-04-20T08:21:09.244Z,1025.23
2019-04-20T08:22:15.575Z,1025.21
2019-04-20T08:23:12.319Z,1025.28
2019-04-20T08:24:07.386Z,1025.23
2019-04-20T08:25:05.507Z,1025.21
2019-04-20T08:26:01.773Z,1025.24
2019-04-20T08:26:56.975Z,1025.21
2019-04-20T08:27:52.836Z,1025.21
2019-04-20T08:28:56.774Z,1025.21
2019-04-20T08:30:01.995Z,1025.18
2019-04-20T08:31:05.154Z,1025.17
2019-04-20T08:32:14.054Z,1025.16
2019-04-20T08:33:10.918Z,1025.16
2019-04-20T08:34:31.170Z,1025.19
2019-04-20T08:35:14.301Z,1025.20
2019-04-20T08:36:14.772Z,1025.18
2019-04-20T08:37:11.755Z,1025.14
2019-04-20T08:38:47.327Z,1025.17
2019-04-20T08:39:24.438Z,1025.13
2019-04-20T08:40:15.012Z,1025.17
2019-04-20T08:41:07.296Z,1025.21
2019-04-20T08:42:14.612Z,1025.19
2019-04-20T08:43:20.948Z,1025.14
2019-04-20T08:44:33.789Z,1025.10
2019-04-20T08:45:17.912Z,1025.11
2019-04-20T08:46:18.187Z,1025.10
2019-04-20T08:47:20.299Z,1025.12
2019-04-20T08:48:20.236Z,1025.09
2019-04-20T08:49:22.426Z,1025.08
2019-04-20T08:50:16.521Z,1025.06
2019-04-20T08:51:16.297Z,1025.08
2019-04-20T08:52:23.278Z,1025.10
2019-04-20T08:54:06.889Z,1025.07
2019-04-20T08:55:10.577Z,1025.05
2019-04-20T08:56:07.339Z,1025.04
2019-04-20T08:56:55.351Z,1025.04
2019-04-20T08:57:51.534Z,1025.07
2019-04-20T08:58:50.728Z,1025.14
2019-04-20T08:59:51.392Z,1025.10
2019-04-20T09:00:55.435Z,1025.09
2019-04-20T09:01:51.178Z,1025.12
2019-04-20T09:02:55.558Z,1025.12
2019-04-20T09:03:59.013Z,1025.07
2019-04-20T09:04:58.467Z,1025.05
2019-04-20T09:06:02.497Z,1025.07
2019-04-20T09:07:04.018Z,1025.08
2019-04-20T09:08:02.480Z,1025.04
2019-04-20T09:09:17.349Z,1025.05
2019-04-20T09:10:16.435Z,1025.06
2019-04-20T09:11:10.031Z,1025.04
2019-04-20T09:12:11.099Z,1024.96
2019-04-20T09:13:05.436Z,1025.04
2019-04-20T09:13:55.930Z,1024.99
2019-04-20T09:14:50.958Z,1025.00
2019-04-20T09:15:51.257Z,1024.93
2019-04-20T09:16:54.534Z,1024.90
2019-04-20T09:17:54.799Z,1024.92
2019-04-20T09:18:57.433Z,1024.93
2019-04-20T09:20:00.017Z,1024.91
2019-04-20T09:21:00.434Z,1024.87
2019-04-20T09:21:57.862Z,1024.95
2019-04-20T09:23:11.082Z,1024.97
2019-04-20T09:24:17.220Z,1024.94
2019-04-20T09:25:25.070Z,1024.89
2019-04-20T09:26:13.223Z,1024.90
2019-04-20T09:27:07.721Z,1024.90
2019-04-20T09:28:04.490Z,1024.88
2019-04-20T09:29:03.141Z,1024.92
2019-04-20T09:30:04.565Z,1024.92
2019-04-20T09:31:09.479Z,1024.94
2019-04-20T09:32:11.432Z,1024.97
2019-04-20T09:33:09.315Z,1024.97
2019-04-20T09:34:07.668Z,1024.97
2019-04-20T09:35:07.802Z,1024.92
2019-04-20T09:36:02.280Z,1024.96
2019-04-20T09:37:12.888Z,1024.96
2019-04-20T09:38:06.064Z,1024.94
2019-04-20T09:39:01.163Z,1024.94
2019-04-20T09:40:09.319Z,1025.00
2019-04-20T09:41:09.078Z,1024.96
2019-04-20T09:42:00.854Z,1024.96
2019-04-20T09:42:50.644Z,1024.96
2019-04-20T09:43:51.128Z,1024.91
2019-04-20T09:44:54.333Z,1024.95
2019-04-20T09:45:56.931Z,1024.95
2019-04-20T09:46:54.997Z,1024.95
2019-04-20T09:47:54.457Z,1024.96
2019-04-20T09:48:57.326Z,1024.96
2019-04-20T09:50:00.845Z,1024.98
2019-04-20T09:51:12.663Z,1024.97
2019-04-20T09:52:09.974Z,1024.89
2019-04-20T09:53:05.901Z,1024.92
2019-04-20T09:54:02.883Z,1024.90
2019-04-20T09:55:02.718Z,1024.83
2019-04-20T09:56:06.219Z,1024.86
2019-04-20T09:57:08.953Z,1024.86
2019-04-20T09:58:07.287Z,1024.89
2019-04-20T09:59:09.903Z,1024.89
2019-04-20T10:00:07.237Z,1024.89
2019-04-20T10:01:02.210Z,1024.85
2019-04-20T10:02:01.101Z,1024.88
2019-04-20T10:02:50.543Z,1024.88
2019-04-20T10:03:50.301Z,1024.85
2019-04-20T10:04:49.527Z,1024.89
2019-04-20T10:05:49.708Z,1024.85
2019-04-20T10:06:49.705Z,1024.87
2019-04-20T10:07:56.003Z,1024.90
2019-04-20T10:08:54.203Z,1024.86
2019-04-20T10:09:51.930Z,1024.88
2019-04-20T10:10:50.866Z,1024.82
2019-04-20T10:11:50.489Z,1024.85
2019-04-20T10:12:50.101Z,1024.83
2019-04-20T10:13:50.100Z,1024.83
2019-04-20T10:14:49.284Z,1024.79
2019-04-20T10:15:49.992Z,1024.76
2019-04-20T10:16:49.711Z,1024.77
2019-04-20T10:17:49.902Z,1024.77
2019-04-20T10:18:53.227Z,1024.78
2019-04-20T10:19:49.256Z,1024.78
2019-04-20T10:20:49.662Z,1024.78
2019-04-20T10:21:50.638Z,1024.82
2019-04-20T10:22:49.191Z,1024.77
2019-04-20T10:23:50.281Z,1024.74
2019-04-20T10:24:50.955Z,1024.75
2019-04-20T10:25:49.184Z,1024.73
2019-04-20T10:26:50.360Z,1024.77
2019-04-20T10:27:49.546Z,1024.72
2019-04-20T10:28:49.792Z,1024.80
2019-04-20T10:29:49.362Z,1024.76
2019-04-20T10:30:50.401Z,1024.72
2019-04-20T10:31:55.745Z,1024.69
2019-04-20T10:32:52.280Z,1024.72
2019-04-20T10:33:49.375Z,1024.72
2019-04-20T10:34:49.059Z,1024.63
2019-04-20T10:35:49.636Z,1024.71
2019-04-20T10:36:49.048Z,1024.69
2019-04-20T10:37:49.432Z,1024.67
2019-04-20T10:38:49.010Z,1024.64
2019-04-20T10:39:49.008Z,1024.62
2019-04-20T10:40:57.226Z,1024.67
2019-04-20T10:41:54.311Z,1024.62
2019-04-20T10:42:50.184Z,1024.61
2019-04-20T10:43:49.057Z,1024.60
2019-04-20T10:44:51.615Z,1024.66
2019-04-20T10:45:48.963Z,1024.62
2019-04-20T10:46:49.207Z,1024.61
2019-04-20T10:47:49.005Z,1024.61
2019-04-20T10:48:52.501Z,1024.63
2019-04-20T10:49:49.300Z,1024.66
2019-04-20T10:50:49.280Z,1024.58
2019-04-20T10:51:49.539Z,1024.59
2019-04-20T10:52:49.957Z,1024.57
2019-04-20T10:53:48.877Z,1024.58
2019-04-20T10:54:50.268Z,1024.52
2019-04-20T10:55:49.470Z,1024.55
2019-04-20T10:56:49.774Z,1024.54
2019-04-20T10:57:49.334Z,1024.55
2019-04-20T10:58:49.644Z,1024.56
2019-04-20T10:59:49.833Z,1024.54
2019-04-20T11:00:50.054Z,1024.60
2019-04-20T11:01:49.735Z,1024.58
2019-04-20T11:02:50.495Z,1024.54
2019-04-20T11:03:48.735Z,1024.59
2019-04-20T11:04:48.747Z,1024.52
2019-04-20T11:05:48.985Z,1024.54
2019-04-20T11:06:48.716Z,1024.52
2019-04-20T11:07:48.727Z,1024.50
2019-04-20T11:08:48.775Z,1024.55
2019-04-20T11:10:00.646Z,1024.46
2019-04-20T11:11:01.165Z,1024.51
2019-04-20T11:11:50.307Z,1024.48
2019-04-20T11:12:48.676Z,1024.45
2019-04-20T11:13:48.625Z,1024.46
2019-04-20T11:14:48.616Z,1024.44
2019-04-20T11:15:48.603Z,1024.43
2019-04-20T11:16:50.544Z,1024.41
2019-04-20T11:17:49.097Z,1024.43
2019-04-20T11:18:49.424Z,1024.39
2019-04-20T11:19:49.462Z,1024.37
2019-04-20T11:20:49.143Z,1024.39
2019-04-20T11:21:48.533Z,1024.30
2019-04-20T11:22:48.617Z,1024.38
2019-04-20T11:23:49.926Z,1024.34
2019-04-20T11:24:48.585Z,1024.32
2019-04-20T11:25:48.496Z,1024.31
2019-04-20T11:26:49.617Z,1024.32
2019-04-20T11:27:48.477Z,1024.30
2019-04-20T11:28:48.484Z,1024.26
2019-04-20T11:29:49.749Z,1024.25
2019-04-20T11:30:48.435Z,1024.26
2019-04-20T11:31:51.481Z,1024.27
2019-04-20T11:32:49.492Z,1024.22
2019-04-20T11:33:48.427Z,1024.24
2019-04-20T11:34:49.199Z,1024.21
2019-04-20T11:35:49.855Z,1024.15
2019-04-20T11:36:48.892Z,1024.15
2019-04-20T11:37:49.130Z,1024.15
2019-04-20T11:38:49.078Z,1024.12
2019-04-20T11:39:48.375Z,1024.13
2019-04-20T11:41:02.739Z,1024.14
2019-04-20T11:41:49.770Z,1024.11
2019-04-20T11:42:48.306Z,1024.13
2019-04-20T11:43:49.467Z,1024.12
2019-04-20T11:44:48.822Z,1024.07
2019-04-20T11:45:48.913Z,1024.07
2019-04-20T11:46:48.394Z,1024.05
2019-04-20T11:47:49.480Z,1024.03
2019-04-20T11:48:49.527Z,1024.04
2019-04-20T11:49:49.347Z,1024.09
2019-04-20T11:50:49.471Z,1024.08
2019-04-20T11:51:49.465Z,1024.06
2019-04-20T11:52:49.966Z,1024.04
2019-04-20T11:53:48.259Z,1024.02
2019-04-20T11:54:48.506Z,1024.02
2019-04-20T11:55:48.794Z,1024.02
2019-04-20T11:56:49.094Z,1024.01
2019-04-20T11:57:49.399Z,1024.00
2019-04-20T11:58:49.110Z,1023.99
2019-04-20T11:59:48.463Z,1023.97
2019-04-20T12:00:56.039Z,1023.95
2019-04-20T12:01:54.763Z,1023.93
2019-04-20T12:02:51.399Z,1023.99
2019-04-20T12:03:58.223Z,1023.96
2019-04-20T12:05:03.870Z,1023.94
2019-04-20T12:05:53.768Z,1023.91
2019-04-20T12:06:49.050Z,1023.93
2019-04-20T12:07:49.067Z,1023.91
2019-04-20T12:08:48.911Z,1023.89
2019-04-20T12:09:49.274Z,1023.88
2019-04-20T12:10:51.472Z,1023.87
2019-04-20T12:12:02.069Z,1023.85
2019-04-20T12:12:52.153Z,1023.94
2019-04-20T12:13:49.074Z,1023.83
2019-04-20T12:14:48.478Z,1023.80
2019-04-20T12:15:47.933Z,1023.83
2019-04-20T12:16:47.936Z,1023.76
2019-04-20T12:17:49.404Z,1023.75
2019-04-20T12:18:48.286Z,1023.72
2019-04-20T12:19:48.039Z,1023.72
2019-04-20T12:20:48.017Z,1023.75